Terminal Aerodrome Forecast
Issued by NWS

Home | Current Version | Previous Version | Text Only | Print | Product List | Glossary On
Versions: 1 2 3 4 5 6 7 8 9 10 11 12 13
000
FTUS46 KSEW 251700 RRA
TAFBFI
TAF
KBFI 251745Z 2518/2618 VRB03KT P6SM SCT008 BKN012
     FM252000 VRB03KT P6SM SCT150 BKN200
     FM260900 14003KT 4SM BR SCT004
     FM261200 15004KT 3/4SM BR OVC002
     FM261700 15004KT 3SM BR BKN005=

USA.gov is the U.S. government's official web portal to all federal, state and local government web resources and services.